sensor_id;sensor_type;location;lat;lon;timestamp;P1;durP1;ratioP1;P2;durP2;ratioP2
17662;SDS011;8950;56.892;15.090;2022-07-03T00:02:21;2.72;;;1.60;;
17662;SDS011;8950;56.892;15.090;2022-07-03T00:04:47;1.60;;;1.50;;
17662;SDS011;8950;56.892;15.090;2022-07-03T00:07:15;2.40;;;1.35;;
17662;SDS011;8950;56.892;15.090;2022-07-03T00:09:42;4.57;;;1.58;;
17662;SDS011;8950;56.892;15.090;2022-07-03T00:12:09;3.28;;;1.60;;
17662;SDS011;8950;56.892;15.090;2022-07-03T00:14:35;2.13;;;1.48;;
17662;SDS011;8950;56.892;15.090;2022-07-03T00:17:02;1.75;;;1.55;;
17662;SDS011;8950;56.892;15.090;2022-07-03T00:19:28;3.50;;;1.63;;
17662;SDS011;8950;56.892;15.090;2022-07-03T00:21:55;2.17;;;1.50;;
17662;SDS011;8950;56.892;15.090;2022-07-03T00:24:24;2.15;;;1.50;;
17662;SDS011;8950;56.892;15.090;2022-07-03T00:26:51;3.58;;;1.70;;
17662;SDS011;8950;56.892;15.090;2022-07-03T00:29:19;2.55;;;1.90;;
17662;SDS011;8950;56.892;15.090;2022-07-03T00:31:46;2.08;;;1.40;;
17662;SDS011;8950;56.892;15.090;2022-07-03T00:34:13;2.65;;;1.63;;
17662;SDS011;8950;56.892;15.090;2022-07-03T00:36:41;2.67;;;1.60;;
17662;SDS011;8950;56.892;15.090;2022-07-03T00:39:08;3.97;;;1.75;;
17662;SDS011;8950;56.892;15.090;2022-07-03T00:41:36;1.98;;;1.60;;
17662;SDS011;8950;56.892;15.090;2022-07-03T00:44:02;2.25;;;1.70;;
17662;SDS011;8950;56.892;15.090;2022-07-03T00:46:29;2.92;;;1.50;;
17662;SDS011;8950;56.892;15.090;2022-07-03T00:48:56;3.30;;;1.88;;
17662;SDS011;8950;56.892;15.090;2022-07-03T00:51:24;2.72;;;1.60;;
17662;SDS011;8950;56.892;15.090;2022-07-03T00:53:51;2.20;;;1.58;;
17662;SDS011;8950;56.892;15.090;2022-07-03T00:56:23;1.60;;;1.50;;
17662;SDS011;8950;56.892;15.090;2022-07-03T00:58:51;4.55;;;1.80;;
17662;SDS011;8950;56.892;15.090;2022-07-03T01:01:18;1.65;;;1.40;;
17662;SDS011;8950;56.892;15.090;2022-07-03T01:03:45;3.13;;;1.63;;
17662;SDS011;8950;56.892;15.090;2022-07-03T01:06:13;2.50;;;1.50;;
17662;SDS011;8950;56.892;15.090;2022-07-03T01:08:40;1.60;;;1.50;;
17662;SDS011;8950;56.892;15.090;2022-07-03T01:11:10;4.18;;;1.42;;
17662;SDS011;8950;56.892;15.090;2022-07-03T01:13:43;3.08;;;1.50;;
17662;SDS011;8950;56.892;15.090;2022-07-03T01:16:17;2.22;;;1.60;;
17662;SDS011;8950;56.892;15.090;2022-07-03T01:18:45;1.83;;;1.45;;
17662;SDS011;8950;56.892;15.090;2022-07-03T01:21:15;2.33;;;1.60;;
17662;SDS011;8950;56.892;15.090;2022-07-03T01:24:07;1.85;;;1.65;;
17662;SDS011;8950;56.892;15.090;2022-07-03T01:26:40;4.30;;;1.60;;
17662;SDS011;8950;56.892;15.090;2022-07-03T01:29:08;2.25;;;1.58;;
17662;SDS011;8950;56.892;15.090;2022-07-03T01:31:34;2.53;;;1.40;;
17662;SDS011;8950;56.892;15.090;2022-07-03T01:34:02;2.25;;;1.63;;
17662;SDS011;8950;56.892;15.090;2022-07-03T01:36:32;2.60;;;1.67;;
17662;SDS011;8950;56.892;15.090;2022-07-03T01:38:58;4.72;;;1.80;;
17662;SDS011;8950;56.892;15.090;2022-07-03T01:41:25;2.22;;;1.85;;
17662;SDS011;8950;56.892;15.090;2022-07-03T01:43:57;3.65;;;1.30;;
17662;SDS011;8950;56.892;15.090;2022-07-03T01:46:28;3.38;;;1.65;;
17662;SDS011;8950;56.892;15.090;2022-07-03T01:48:55;2.13;;;1.70;;
17662;SDS011;8950;56.892;15.090;2022-07-03T01:51:23;1.60;;;1.50;;
17662;SDS011;8950;56.892;15.090;2022-07-03T01:53:50;1.45;;;1.30;;
17662;SDS011;8950;56.892;15.090;2022-07-03T01:56:18;4.20;;;1.98;;
17662;SDS011;8950;56.892;15.090;2022-07-03T01:58:45;3.95;;;1.90;;
17662;SDS011;8950;56.892;15.090;2022-07-03T02:01:15;2.70;;;1.60;;
17662;SDS011;8950;56.892;15.090;2022-07-03T02:03:49;2.35;;;1.60;;
17662;SDS011;8950;56.892;15.090;2022-07-03T02:06:18;1.80;;;1.70;;
17662;SDS011;8950;56.892;15.090;2022-07-03T02:08:48;3.10;;;1.67;;
17662;SDS011;8950;56.892;15.090;2022-07-03T02:11:17;1.70;;;1.52;;
17662;SDS011;8950;56.892;15.090;2022-07-03T02:13:51;1.77;;;1.65;;
17662;SDS011;8950;56.892;15.090;2022-07-03T02:16:20;2.90;;;1.60;;
17662;SDS011;8950;56.892;15.090;2022-07-03T02:18:49;2.33;;;1.65;;
17662;SDS011;8950;56.892;15.090;2022-07-03T02:21:19;3.75;;;1.80;;
17662;SDS011;8950;56.892;15.090;2022-07-03T02:23:49;2.15;;;1.60;;
17662;SDS011;8950;56.892;15.090;2022-07-03T02:26:18;1.88;;;1.50;;
17662;SDS011;8950;56.892;15.090;2022-07-03T02:28:51;2.55;;;1.70;;
17662;SDS011;8950;56.892;15.090;2022-07-03T02:31:23;2.85;;;2.00;;
17662;SDS011;8950;56.892;15.090;2022-07-03T02:33:50;3.25;;;1.55;;
17662;SDS011;8950;56.892;15.090;2022-07-03T02:36:21;2.90;;;1.75;;
17662;SDS011;8950;56.892;15.090;2022-07-03T02:38:48;3.45;;;2.08;;
17662;SDS011;8950;56.892;15.090;2022-07-03T02:41:20;2.97;;;1.65;;
17662;SDS011;8950;56.892;15.090;2022-07-03T02:43:49;1.75;;;1.65;;
17662;SDS011;8950;56.892;15.090;2022-07-03T02:46:18;3.92;;;1.85;;
17662;SDS011;8950;56.892;15.090;2022-07-03T02:49:08;2.17;;;1.63;;
17662;SDS011;8950;56.892;15.090;2022-07-03T02:51:37;4.18;;;1.90;;
17662;SDS011;8950;56.892;15.090;2022-07-03T02:54:09;2.47;;;1.50;;
17662;SDS011;8950;56.892;15.090;2022-07-03T02:56:38;1.67;;;1.58;;
17662;SDS011;8950;56.892;15.090;2022-07-03T02:59:11;4.68;;;1.83;;
17662;SDS011;8950;56.892;15.090;2022-07-03T03:01:48;1.90;;;1.70;;
17662;SDS011;8950;56.892;15.090;2022-07-03T03:04:23;1.67;;;1.58;;
17662;SDS011;8950;56.892;15.090;2022-07-03T03:06:54;1.95;;;1.75;;
17662;SDS011;8950;56.892;15.090;2022-07-03T03:09:24;1.70;;;1.60;;
17662;SDS011;8950;56.892;15.090;2022-07-03T03:11:52;2.20;;;2.00;;
17662;SDS011;8950;56.892;15.090;2022-07-03T03:14:20;5.15;;;2.15;;
17662;SDS011;8950;56.892;15.090;2022-07-03T03:16:50;3.15;;;2.00;;
17662;SDS011;8950;56.892;15.090;2022-07-03T03:19:18;2.03;;;1.83;;
17662;SDS011;8950;56.892;15.090;2022-07-03T03:21:50;1.85;;;1.75;;
17662;SDS011;8950;56.892;15.090;2022-07-03T03:24:18;4.63;;;1.88;;
17662;SDS011;8950;56.892;15.090;2022-07-03T03:26:45;4.05;;;2.20;;
17662;SDS011;8950;56.892;15.090;2022-07-03T03:29:11;2.90;;;1.83;;
17662;SDS011;8950;56.892;15.090;2022-07-03T03:31:38;2.22;;;1.77;;
17662;SDS011;8950;56.892;15.090;2022-07-03T03:34:04;2.40;;;1.80;;
17662;SDS011;8950;56.892;15.090;2022-07-03T03:36:31;2.17;;;1.63;;
17662;SDS011;8950;56.892;15.090;2022-07-03T03:39:00;2.10;;;1.90;;
17662;SDS011;8950;56.892;15.090;2022-07-03T03:41:26;3.78;;;2.10;;
17662;SDS011;8950;56.892;15.090;2022-07-03T03:43:53;2.55;;;1.98;;
17662;SDS011;8950;56.892;15.090;2022-07-03T03:46:19;2.63;;;1.77;;
17662;SDS011;8950;56.892;15.090;2022-07-03T03:48:46;2.00;;;1.80;;
17662;SDS011;8950;56.892;15.090;2022-07-03T03:51:13;3.28;;;2.05;;
17662;SDS011;8950;56.892;15.090;2022-07-03T03:53:40;2.47;;;2.20;;
17662;SDS011;8950;56.892;15.090;2022-07-03T03:56:08;2.58;;;2.10;;
17662;SDS011;8950;56.892;15.090;2022-07-03T03:58:36;3.30;;;1.98;;
17662;SDS011;8950;56.892;15.090;2022-07-03T04:01:03;4.25;;;2.05;;
17662;SDS011;8950;56.892;15.090;2022-07-03T04:03:30;2.25;;;2.05;;
17662;SDS011;8950;56.892;15.090;2022-07-03T04:05:57;2.92;;;1.90;;
17662;SDS011;8950;56.892;15.090;2022-07-03T04:08:24;3.95;;;2.30;;
17662;SDS011;8950;56.892;15.090;2022-07-03T04:10:51;3.40;;;2.15;;
17662;SDS011;8950;56.892;15.090;2022-07-03T04:13:20;2.28;;;2.17;;
17662;SDS011;8950;56.892;15.090;2022-07-03T04:15:47;2.75;;;2.10;;
17662;SDS011;8950;56.892;15.090;2022-07-03T04:18:13;6.40;;;2.22;;
17662;SDS011;8950;56.892;15.090;2022-07-03T04:20:40;2.40;;;2.20;;
17662;SDS011;8950;56.892;15.090;2022-07-03T04:23:06;2.67;;;1.92;;
17662;SDS011;8950;56.892;15.090;2022-07-03T04:25:33;3.22;;;1.90;;
17662;SDS011;8950;56.892;15.090;2022-07-03T04:27:59;2.35;;;2.08;;
17662;SDS011;8950;56.892;15.090;2022-07-03T04:30:27;2.53;;;2.22;;
17662;SDS011;8950;56.892;15.090;2022-07-03T04:32:53;2.50;;;2.22;;
17662;SDS011;8950;56.892;15.090;2022-07-03T04:35:20;3.00;;;2.30;;
17662;SDS011;8950;56.892;15.090;2022-07-03T04:37:47;2.58;;;2.33;;
17662;SDS011;8950;56.892;15.090;2022-07-03T04:40:13;2.75;;;2.15;;
17662;SDS011;8950;56.892;15.090;2022-07-03T04:42:40;3.63;;;2.20;;
17662;SDS011;8950;56.892;15.090;2022-07-03T04:45:07;3.40;;;2.40;;
17662;SDS011;8950;56.892;15.090;2022-07-03T04:47:34;2.08;;;1.80;;
17662;SDS011;8950;56.892;15.090;2022-07-03T04:50:01;3.03;;;2.13;;
17662;SDS011;8950;56.892;15.090;2022-07-03T04:52:28;3.20;;;2.08;;
17662;SDS011;8950;56.892;15.090;2022-07-03T04:54:55;3.40;;;2.50;;
17662;SDS011;8950;56.892;15.090;2022-07-03T04:57:21;2.72;;;2.22;;
17662;SDS011;8950;56.892;15.090;2022-07-03T04:59:48;2.20;;;2.00;;
17662;SDS011;8950;56.892;15.090;2022-07-03T05:02:14;3.13;;;2.15;;
17662;SDS011;8950;56.892;15.090;2022-07-03T05:04:42;2.75;;;2.33;;
17662;SDS011;8950;56.892;15.090;2022-07-03T05:07:08;2.65;;;2.10;;
17662;SDS011;8950;56.892;15.090;2022-07-03T05:09:35;2.63;;;2.17;;
17662;SDS011;8950;56.892;15.090;2022-07-03T05:12:01;2.53;;;2.08;;
17662;SDS011;8950;56.892;15.090;2022-07-03T05:14:28;3.13;;;2.28;;
17662;SDS011;8950;56.892;15.090;2022-07-03T05:16:55;3.97;;;2.00;;
17662;SDS011;8950;56.892;15.090;2022-07-03T05:19:21;3.00;;;2.13;;
17662;SDS011;8950;56.892;15.090;2022-07-03T05:21:49;2.97;;;2.15;;
17662;SDS011;8950;56.892;15.090;2022-07-03T05:24:16;2.63;;;2.00;;
17662;SDS011;8950;56.892;15.090;2022-07-03T05:26:42;3.90;;;2.40;;
17662;SDS011;8950;56.892;15.090;2022-07-03T05:29:08;3.28;;;2.10;;
17662;SDS011;8950;56.892;15.090;2022-07-03T05:31:35;3.28;;;1.90;;
17662;SDS011;8950;56.892;15.090;2022-07-03T05:34:01;4.05;;;2.00;;
17662;SDS011;8950;56.892;15.090;2022-07-03T05:36:28;2.35;;;1.83;;
17662;SDS011;8950;56.892;15.090;2022-07-03T05:38:55;1.60;;;1.50;;
17662;SDS011;8950;56.892;15.090;2022-07-03T05:41:40;2.00;;;1.90;;
17662;SDS011;8950;56.892;15.090;2022-07-03T05:44:06;2.30;;;1.90;;
17662;SDS011;8950;56.892;15.090;2022-07-03T05:46:33;4.55;;;2.10;;
17662;SDS011;8950;56.892;15.090;2022-07-03T05:48:59;4.65;;;2.17;;
17662;SDS011;8950;56.892;15.090;2022-07-03T05:51:25;3.03;;;1.85;;
17662;SDS011;8950;56.892;15.090;2022-07-03T05:53:52;2.33;;;1.70;;
17662;SDS011;8950;56.892;15.090;2022-07-03T05:56:19;3.17;;;1.90;;
17662;SDS011;8950;56.892;15.090;2022-07-03T05:58:46;2.40;;;1.90;;
17662;SDS011;8950;56.892;15.090;2022-07-03T06:01:12;1.98;;;1.67;;
17662;SDS011;8950;56.892;15.090;2022-07-03T06:03:39;2.90;;;1.70;;
17662;SDS011;8950;56.892;15.090;2022-07-03T06:06:05;2.65;;;1.70;;
17662;SDS011;8950;56.892;15.090;2022-07-03T06:08:32;2.92;;;1.60;;
17662;SDS011;8950;56.892;15.090;2022-07-03T06:10:58;2.13;;;1.85;;
17662;SDS011;8950;56.892;15.090;2022-07-03T06:13:26;2.53;;;1.65;;
17662;SDS011;8950;56.892;15.090;2022-07-03T06:15:52;2.97;;;1.85;;
17662;SDS011;8950;56.892;15.090;2022-07-03T06:18:19;3.30;;;1.70;;
17662;SDS011;8950;56.892;15.090;2022-07-03T06:20:45;2.85;;;1.67;;
17662;SDS011;8950;56.892;15.090;2022-07-03T06:23:12;2.38;;;1.70;;
17662;SDS011;8950;56.892;15.090;2022-07-03T06:25:38;2.53;;;1.73;;
17662;SDS011;8950;56.892;15.090;2022-07-03T06:28:05;4.05;;;1.83;;
17662;SDS011;8950;56.892;15.090;2022-07-03T06:30:33;3.63;;;1.90;;
17662;SDS011;8950;56.892;15.090;2022-07-03T06:32:59;3.53;;;1.75;;
17662;SDS011;8950;56.892;15.090;2022-07-03T06:35:26;3.97;;;1.92;;
17662;SDS011;8950;56.892;15.090;2022-07-03T06:37:52;3.17;;;1.70;;
17662;SDS011;8950;56.892;15.090;2022-07-03T06:40:20;3.88;;;1.80;;
17662;SDS011;8950;56.892;15.090;2022-07-03T06:42:46;3.50;;;1.63;;
17662;SDS011;8950;56.892;15.090;2022-07-03T06:45:13;4.75;;;2.08;;
17662;SDS011;8950;56.892;15.090;2022-07-03T06:47:41;5.57;;;2.00;;
17662;SDS011;8950;56.892;15.090;2022-07-03T06:50:07;3.83;;;1.70;;
17662;SDS011;8950;56.892;15.090;2022-07-03T06:52:34;3.53;;;2.13;;
17662;SDS011;8950;56.892;15.090;2022-07-03T06:55:00;3.53;;;1.70;;
17662;SDS011;8950;56.892;15.090;2022-07-03T06:57:27;2.67;;;1.60;;
17662;SDS011;8950;56.892;15.090;2022-07-03T06:59:53;2.05;;;1.88;;
17662;SDS011;8950;56.892;15.090;2022-07-03T07:02:19;1.73;;;1.60;;
17662;SDS011;8950;56.892;15.090;2022-07-03T07:04:47;2.67;;;1.50;;
17662;SDS011;8950;56.892;15.090;2022-07-03T07:07:14;4.25;;;2.03;;
17662;SDS011;8950;56.892;15.090;2022-07-03T07:09:40;3.05;;;1.65;;
17662;SDS011;8950;56.892;15.090;2022-07-03T07:12:07;1.98;;;1.75;;
17662;SDS011;8950;56.892;15.090;2022-07-03T07:14:34;3.90;;;2.00;;
17662;SDS011;8950;56.892;15.090;2022-07-03T07:17:00;2.72;;;1.70;;
17662;SDS011;8950;56.892;15.090;2022-07-03T07:19:27;2.53;;;1.73;;
17662;SDS011;8950;56.892;15.090;2022-07-03T07:21:54;3.25;;;1.90;;
17662;SDS011;8950;56.892;15.090;2022-07-03T07:24:21;3.42;;;2.20;;
17662;SDS011;8950;56.892;15.090;2022-07-03T07:26:47;3.08;;;1.90;;
17662;SDS011;8950;56.892;15.090;2022-07-03T07:29:14;2.22;;;1.55;;
17662;SDS011;8950;56.892;15.090;2022-07-03T07:31:40;2.72;;;1.90;;
17662;SDS011;8950;56.892;15.090;2022-07-03T07:34:07;2.05;;;1.80;;
17662;SDS011;8950;56.892;15.090;2022-07-03T07:36:33;3.70;;;2.35;;
17662;SDS011;8950;56.892;15.090;2022-07-03T07:39:01;2.38;;;1.90;;
17662;SDS011;8950;56.892;15.090;2022-07-03T07:41:27;3.00;;;1.75;;
17662;SDS011;8950;56.892;15.090;2022-07-03T07:43:54;3.85;;;2.00;;
17662;SDS011;8950;56.892;15.090;2022-07-03T07:46:21;2.22;;;1.80;;
17662;SDS011;8950;56.892;15.090;2022-07-03T07:48:47;2.90;;;1.73;;
17662;SDS011;8950;56.892;15.090;2022-07-03T07:51:14;3.28;;;1.70;;
17662;SDS011;8950;56.892;15.090;2022-07-03T07:53:41;2.78;;;1.70;;
17662;SDS011;8950;56.892;15.090;2022-07-03T07:56:08;3.00;;;2.17;;
17662;SDS011;8950;56.892;15.090;2022-07-03T07:58:35;2.70;;;1.70;;
17662;SDS011;8950;56.892;15.090;2022-07-03T08:01:02;2.65;;;1.80;;
17662;SDS011;8950;56.892;15.090;2022-07-03T08:03:46;1.60;;;1.50;;
17662;SDS011;8950;56.892;15.090;2022-07-03T08:06:30;2.15;;;1.58;;
17662;SDS011;8950;56.892;15.090;2022-07-03T08:08:57;2.65;;;1.90;;
17662;SDS011;8950;56.892;15.090;2022-07-03T08:11:24;1.98;;;1.60;;
17662;SDS011;8950;56.892;15.090;2022-07-03T08:13:51;4.10;;;2.05;;
17662;SDS011;8950;56.892;15.090;2022-07-03T08:16:17;2.72;;;2.00;;
17662;SDS011;8950;56.892;15.090;2022-07-03T08:18:44;2.45;;;1.77;;
17662;SDS011;8950;56.892;15.090;2022-07-03T08:21:11;2.05;;;1.70;;
17662;SDS011;8950;56.892;15.090;2022-07-03T08:23:37;4.10;;;2.08;;
17662;SDS011;8950;56.892;15.090;2022-07-03T08:26:04;2.47;;;1.75;;
17662;SDS011;8950;56.892;15.090;2022-07-03T08:28:32;3.85;;;1.80;;
17662;SDS011;8950;56.892;15.090;2022-07-03T08:30:59;4.30;;;1.83;;
17662;SDS011;8950;56.892;15.090;2022-07-03T08:33:25;1.92;;;1.55;;
17662;SDS011;8950;56.892;15.090;2022-07-03T08:35:52;5.68;;;1.80;;
17662;SDS011;8950;56.892;15.090;2022-07-03T08:38:22;2.92;;;1.90;;
17662;SDS011;8950;56.892;15.090;2022-07-03T08:40:52;3.17;;;1.75;;
17662;SDS011;8950;56.892;15.090;2022-07-03T08:43:19;4.35;;;2.03;;
17662;SDS011;8950;56.892;15.090;2022-07-03T08:45:47;2.22;;;1.70;;
17662;SDS011;8950;56.892;15.090;2022-07-03T08:48:13;3.42;;;1.98;;
17662;SDS011;8950;56.892;15.090;2022-07-03T08:50:40;2.25;;;2.00;;
17662;SDS011;8950;56.892;15.090;2022-07-03T08:53:08;2.88;;;1.85;;
17662;SDS011;8950;56.892;15.090;2022-07-03T08:55:36;2.03;;;1.92;;
17662;SDS011;8950;56.892;15.090;2022-07-03T08:58:02;5.15;;;2.03;;
17662;SDS011;8950;56.892;15.090;2022-07-03T09:00:31;4.25;;;2.10;;
17662;SDS011;8950;56.892;15.090;2022-07-03T09:02:59;1.80;;;1.70;;
17662;SDS011;8950;56.892;15.090;2022-07-03T09:05:29;1.95;;;1.80;;
17662;SDS011;8950;56.892;15.090;2022-07-03T09:07:56;2.50;;;1.63;;
17662;SDS011;8950;56.892;15.090;2022-07-03T09:10:23;2.20;;;1.92;;
17662;SDS011;8950;56.892;15.090;2022-07-03T09:12:49;3.58;;;2.22;;
17662;SDS011;8950;56.892;15.090;2022-07-03T09:15:16;1.85;;;1.75;;
17662;SDS011;8950;56.892;15.090;2022-07-03T09:17:55;2.80;;;2.22;;
17662;SDS011;8950;56.892;15.090;2022-07-03T09:20:28;2.60;;;2.13;;
17662;SDS011;8950;56.892;15.090;2022-07-03T09:22:57;2.67;;;1.88;;
17662;SDS011;8950;56.892;15.090;2022-07-03T09:25:34;2.20;;;1.90;;
17662;SDS011;8950;56.892;15.090;2022-07-03T09:28:00;2.45;;;2.13;;
17662;SDS011;8950;56.892;15.090;2022-07-03T09:30:27;2.42;;;1.83;;
17662;SDS011;8950;56.892;15.090;2022-07-03T09:32:53;3.65;;;1.98;;
17662;SDS011;8950;56.892;15.090;2022-07-03T09:35:20;3.50;;;1.98;;
17662;SDS011;8950;56.892;15.090;2022-07-03T09:37:50;2.13;;;1.92;;
17662;SDS011;8950;56.892;15.090;2022-07-03T09:40:16;3.88;;;2.00;;
17662;SDS011;8950;56.892;15.090;2022-07-03T09:42:56;2.25;;;2.05;;
17662;SDS011;8950;56.892;15.090;2022-07-03T09:45:22;2.30;;;2.10;;
17662;SDS011;8950;56.892;15.090;2022-07-03T09:47:49;2.30;;;2.10;;
17662;SDS011;8950;56.892;15.090;2022-07-03T09:50:15;3.15;;;2.25;;
17662;SDS011;8950;56.892;15.090;2022-07-03T09:52:42;3.80;;;2.65;;
17662;SDS011;8950;56.892;15.090;2022-07-03T09:55:14;3.35;;;2.20;;
17662;SDS011;8950;56.892;15.090;2022-07-03T09:57:41;2.53;;;2.30;;
17662;SDS011;8950;56.892;15.090;2022-07-03T10:00:09;2.47;;;2.28;;
17662;SDS011;8950;56.892;15.090;2022-07-03T10:02:44;4.00;;;2.47;;
17662;SDS011;8950;56.892;15.090;2022-07-03T10:05:17;2.80;;;2.50;;
17662;SDS011;8950;56.892;15.090;2022-07-03T10:07:49;3.95;;;2.20;;
17662;SDS011;8950;56.892;15.090;2022-07-03T10:10:17;3.42;;;2.55;;
17662;SDS011;8950;56.892;15.090;2022-07-03T10:12:44;3.05;;;2.40;;
17662;SDS011;8950;56.892;15.090;2022-07-03T10:15:11;4.53;;;2.47;;
17662;SDS011;8950;56.892;15.090;2022-07-03T10:17:38;2.92;;;2.65;;
17662;SDS011;8950;56.892;15.090;2022-07-03T10:20:06;3.08;;;2.30;;
17662;SDS011;8950;56.892;15.090;2022-07-03T10:22:33;2.35;;;2.22;;
17662;SDS011;8950;56.892;15.090;2022-07-03T10:25:02;3.38;;;2.53;;
17662;SDS011;8950;56.892;15.090;2022-07-03T10:27:30;2.30;;;2.10;;
17662;SDS011;8950;56.892;15.090;2022-07-03T10:29:57;2.95;;;2.47;;
17662;SDS011;8950;56.892;15.090;2022-07-03T10:32:24;3.20;;;2.75;;
17662;SDS011;8950;56.892;15.090;2022-07-03T10:34:51;3.10;;;2.28;;
17662;SDS011;8950;56.892;15.090;2022-07-03T10:37:18;4.30;;;2.95;;
17662;SDS011;8950;56.892;15.090;2022-07-03T10:39:48;3.85;;;2.55;;
17662;SDS011;8950;56.892;15.090;2022-07-03T10:42:18;2.55;;;2.30;;
17662;SDS011;8950;56.892;15.090;2022-07-03T10:45:08;2.45;;;2.22;;
17662;SDS011;8950;56.892;15.090;2022-07-03T10:47:38;4.43;;;2.30;;
17662;SDS011;8950;56.892;15.090;2022-07-03T10:50:07;3.75;;;2.03;;
17662;SDS011;8950;56.892;15.090;2022-07-03T10:52:33;4.82;;;2.65;;
17662;SDS011;8950;56.892;15.090;2022-07-03T10:55:00;3.05;;;2.08;;
17662;SDS011;8950;56.892;15.090;2022-07-03T10:57:28;2.38;;;2.17;;
17662;SDS011;8950;56.892;15.090;2022-07-03T10:59:58;3.35;;;2.20;;
17662;SDS011;8950;56.892;15.090;2022-07-03T11:02:28;2.50;;;2.25;;
17662;SDS011;8950;56.892;15.090;2022-07-03T11:08:08;4.55;;;2.47;;
17662;SDS011;8950;56.892;15.090;2022-07-03T11:10:35;5.38;;;2.78;;
17662;SDS011;8950;56.892;15.090;2022-07-03T11:13:06;2.97;;;2.40;;
17662;SDS011;8950;56.892;15.090;2022-07-03T11:15:35;2.70;;;2.50;;
17662;SDS011;8950;56.892;15.090;2022-07-03T11:18:14;3.88;;;2.25;;
17662;SDS011;8950;56.892;15.090;2022-07-03T11:23:28;3.38;;;2.25;;
17662;SDS011;8950;56.892;15.090;2022-07-03T11:25:55;3.30;;;2.80;;
17662;SDS011;8950;56.892;15.090;2022-07-03T11:31:17;6.45;;;2.50;;
17662;SDS011;8950;56.892;15.090;2022-07-03T11:33:45;3.90;;;2.60;;
17662;SDS011;8950;56.892;15.090;2022-07-03T11:36:22;3.55;;;2.60;;
17662;SDS011;8950;56.892;15.090;2022-07-03T11:38:52;2.90;;;2.63;;
17662;SDS011;8950;56.892;15.090;2022-07-03T11:41:29;3.25;;;2.78;;
17662;SDS011;8950;56.892;15.090;2022-07-03T11:44:01;2.92;;;2.40;;
17662;SDS011;8950;56.892;15.090;2022-07-03T11:46:29;3.28;;;2.80;;
17662;SDS011;8950;56.892;15.090;2022-07-03T11:49:05;3.20;;;2.47;;
17662;SDS011;8950;56.892;15.090;2022-07-03T11:51:32;3.70;;;2.55;;
17662;SDS011;8950;56.892;15.090;2022-07-03T11:53:58;2.85;;;2.65;;
17662;SDS011;8950;56.892;15.090;2022-07-03T11:56:25;3.28;;;2.90;;
17662;SDS011;8950;56.892;15.090;2022-07-03T11:58:53;3.85;;;2.67;;
17662;SDS011;8950;56.892;15.090;2022-07-03T12:01:30;4.28;;;2.80;;
17662;SDS011;8950;56.892;15.090;2022-07-03T12:04:04;2.80;;;2.60;;
17662;SDS011;8950;56.892;15.090;2022-07-03T12:06:34;2.97;;;2.78;;
17662;SDS011;8950;56.892;15.090;2022-07-03T12:09:01;3.03;;;2.58;;
17662;SDS011;8950;56.892;15.090;2022-07-03T12:11:28;2.72;;;2.40;;
17662;SDS011;8950;56.892;15.090;2022-07-03T12:13:54;2.65;;;2.45;;
17662;SDS011;8950;56.892;15.090;2022-07-03T12:19:25;2.78;;;2.53;;
17662;SDS011;8950;56.892;15.090;2022-07-03T12:21:51;3.92;;;2.85;;
17662;SDS011;8950;56.892;15.090;2022-07-03T12:24:18;10.70;;;3.00;;
17662;SDS011;8950;56.892;15.090;2022-07-03T12:26:45;3.80;;;2.60;;
17662;SDS011;8950;56.892;15.090;2022-07-03T12:29:13;2.50;;;2.20;;
17662;SDS011;8950;56.892;15.090;2022-07-03T12:31:40;4.40;;;2.70;;
17662;SDS011;8950;56.892;15.090;2022-07-03T12:34:06;4.55;;;2.80;;
17662;SDS011;8950;56.892;15.090;2022-07-03T12:36:34;3.30;;;2.65;;
17662;SDS011;8950;56.892;15.090;2022-07-03T12:39:01;3.00;;;2.70;;
17662;SDS011;8950;56.892;15.090;2022-07-03T12:41:27;2.78;;;2.58;;
17662;SDS011;8950;56.892;15.090;2022-07-03T12:43:54;2.90;;;2.50;;
17662;SDS011;8950;56.892;15.090;2022-07-03T12:46:22;3.22;;;2.63;;
17662;SDS011;8950;56.892;15.090;2022-07-03T12:48:49;2.90;;;2.60;;
17662;SDS011;8950;56.892;15.090;2022-07-03T12:51:16;4.55;;;2.90;;
17662;SDS011;8950;56.892;15.090;2022-07-03T12:53:45;3.67;;;2.80;;
17662;SDS011;8950;56.892;15.090;2022-07-03T12:56:20;2.63;;;2.42;;
17662;SDS011;8950;56.892;15.090;2022-07-03T12:58:46;4.85;;;2.47;;
17662;SDS011;8950;56.892;15.090;2022-07-03T13:01:30;4.78;;;2.67;;
17662;SDS011;8950;56.892;15.090;2022-07-03T13:03:58;2.70;;;2.50;;
17662;SDS011;8950;56.892;15.090;2022-07-03T13:06:25;2.88;;;2.63;;
17662;SDS011;8950;56.892;15.090;2022-07-03T13:08:54;4.13;;;2.88;;
17662;SDS011;8950;56.892;15.090;2022-07-03T13:11:27;2.70;;;2.50;;
17662;SDS011;8950;56.892;15.090;2022-07-03T13:14:00;2.60;;;2.40;;
17662;SDS011;8950;56.892;15.090;2022-07-03T13:16:28;3.55;;;3.22;;
17662;SDS011;8950;56.892;15.090;2022-07-03T13:18:58;2.90;;;2.47;;
17662;SDS011;8950;56.892;15.090;2022-07-03T13:21:24;3.20;;;2.90;;
17662;SDS011;8950;56.892;15.090;2022-07-03T13:23:51;2.95;;;2.75;;
17662;SDS011;8950;56.892;15.090;2022-07-03T13:26:19;4.38;;;2.55;;
17662;SDS011;8950;56.892;15.090;2022-07-03T13:28:46;2.85;;;2.65;;
17662;SDS011;8950;56.892;15.090;2022-07-03T13:31:12;3.15;;;2.50;;
17662;SDS011;8950;56.892;15.090;2022-07-03T13:33:39;2.78;;;2.50;;
17662;SDS011;8950;56.892;15.090;2022-07-03T13:36:05;2.65;;;2.25;;
17662;SDS011;8950;56.892;15.090;2022-07-03T13:38:32;2.50;;;2.30;;
17662;SDS011;8950;56.892;15.090;2022-07-03T13:40:58;2.28;;;2.17;;
17662;SDS011;8950;56.892;15.090;2022-07-03T13:43:26;3.13;;;2.72;;
17662;SDS011;8950;56.892;15.090;2022-07-03T13:45:52;4.22;;;2.72;;
17662;SDS011;8950;56.892;15.090;2022-07-03T13:48:19;2.78;;;2.40;;
17662;SDS011;8950;56.892;15.090;2022-07-03T13:50:45;3.13;;;2.58;;
17662;SDS011;8950;56.892;15.090;2022-07-03T13:53:12;2.65;;;2.45;;
17662;SDS011;8950;56.892;15.090;2022-07-03T13:55:39;2.50;;;2.30;;
17662;SDS011;8950;56.892;15.090;2022-07-03T13:58:06;2.60;;;2.40;;
17662;SDS011;8950;56.892;15.090;2022-07-03T14:00:34;2.78;;;2.53;;
17662;SDS011;8950;56.892;15.090;2022-07-03T14:03:01;2.63;;;2.10;;
17662;SDS011;8950;56.892;15.090;2022-07-03T14:05:27;3.45;;;3.15;;
17662;SDS011;8950;56.892;15.090;2022-07-03T14:07:54;3.38;;;2.83;;
17662;SDS011;8950;56.892;15.090;2022-07-03T14:10:20;3.00;;;2.80;;
17662;SDS011;8950;56.892;15.090;2022-07-03T14:12:47;2.70;;;2.50;;
17662;SDS011;8950;56.892;15.090;2022-07-03T14:15:13;3.10;;;2.63;;
17662;SDS011;8950;56.892;15.090;2022-07-03T14:17:41;2.97;;;2.65;;
17662;SDS011;8950;56.892;15.090;2022-07-03T14:20:08;2.40;;;2.22;;
17662;SDS011;8950;56.892;15.090;2022-07-03T14:22:35;2.80;;;2.60;;
17662;SDS011;8950;56.892;15.090;2022-07-03T14:25:02;2.17;;;1.98;;
17662;SDS011;8950;56.892;15.090;2022-07-03T14:27:28;2.60;;;2.30;;
17662;SDS011;8950;56.892;15.090;2022-07-03T14:30:12;3.15;;;2.00;;
17662;SDS011;8950;56.892;15.090;2022-07-03T14:32:57;5.68;;;2.20;;
17662;SDS011;8950;56.892;15.090;2022-07-03T14:35:23;3.15;;;2.17;;
17662;SDS011;8950;56.892;15.090;2022-07-03T14:37:51;2.65;;;2.45;;
17662;SDS011;8950;56.892;15.090;2022-07-03T14:40:17;3.05;;;2.50;;
17662;SDS011;8950;56.892;15.090;2022-07-03T14:42:44;2.88;;;2.45;;
17662;SDS011;8950;56.892;15.090;2022-07-03T14:45:10;2.67;;;2.08;;
17662;SDS011;8950;56.892;15.090;2022-07-03T14:47:37;2.38;;;2.20;;
17662;SDS011;8950;56.892;15.090;2022-07-03T14:50:05;3.38;;;2.20;;
17662;SDS011;8950;56.892;15.090;2022-07-03T14:52:32;2.60;;;2.13;;
17662;SDS011;8950;56.892;15.090;2022-07-03T14:54:59;2.97;;;2.20;;
17662;SDS011;8950;56.892;15.090;2022-07-03T14:57:26;3.05;;;2.63;;
17662;SDS011;8950;56.892;15.090;2022-07-03T15:00:02;2.72;;;2.30;;
17662;SDS011;8950;56.892;15.090;2022-07-03T15:02:32;2.30;;;2.10;;
17662;SDS011;8950;56.892;15.090;2022-07-03T15:05:02;2.33;;;2.22;;
17662;SDS011;8950;56.892;15.090;2022-07-03T15:07:34;4.07;;;2.53;;